createdAt,value
2023-06-02T00:02:45.065Z,8.70
2023-06-02T00:05:32.708Z,8.45
2023-06-02T00:08:20.339Z,8.02
2023-06-02T00:11:08.513Z,8.45
2023-06-02T00:13:56.461Z,8.15
2023-06-02T00:16:48.128Z,8.40
2023-06-02T00:19:38.359Z,7.90
2023-06-02T00:22:30.588Z,8.43
2023-06-02T00:25:18.632Z,8.77
2023-06-02T00:28:06.229Z,8.57
2023-06-02T00:30:54.395Z,8.43
2023-06-02T00:33:42.758Z,8.45
2023-06-02T00:36:31.755Z,8.35
2023-06-02T00:39:19.674Z,8.27
2023-06-02T00:42:08.473Z,8.05
2023-06-02T00:44:55.978Z,8.63
2023-06-02T00:47:43.307Z,7.78
2023-06-02T00:50:31.681Z,7.72
2023-06-02T00:53:21.083Z,8.07
2023-06-02T00:56:08.897Z,8.68
2023-06-02T00:58:57.073Z,7.85
2023-06-02T01:01:46.308Z,8.25
2023-06-02T01:04:34.354Z,7.57
2023-06-02T01:07:24.547Z,7.45
2023-06-02T01:10:16.966Z,7.38
2023-06-02T01:13:04.661Z,7.80
2023-06-02T01:15:52.387Z,8.02
2023-06-02T01:18:44.117Z,7.97
2023-06-02T01:21:35.778Z,7.85
2023-06-02T01:24:26.352Z,7.18
2023-06-02T01:27:14.321Z,7.05
2023-06-02T01:30:02.432Z,7.03
2023-06-02T01:32:56.698Z,7.00
2023-06-02T01:35:46.700Z,8.00
2023-06-02T01:38:36.819Z,8.23
2023-06-02T01:41:28.431Z,7.53
2023-06-02T01:44:15.985Z,7.60
2023-06-02T01:47:04.130Z,8.40
2023-06-02T01:49:51.817Z,7.85
2023-06-02T01:52:39.678Z,8.02
2023-06-02T01:55:27.095Z,7.47
2023-06-02T01:58:16.188Z,7.72
2023-06-02T02:01:03.802Z,8.30
2023-06-02T02:03:51.882Z,6.80
2023-06-02T02:06:40.884Z,7.72
2023-06-02T02:09:28.440Z,6.38
2023-06-02T02:12:16.172Z,7.07
2023-06-02T02:15:07.861Z,8.57
2023-06-02T02:17:58.077Z,7.78
2023-06-02T02:20:45.812Z,7.40
2023-06-02T02:23:33.610Z,6.95
2023-06-02T02:26:21.200Z,7.63
2023-06-02T02:29:08.699Z,6.85
2023-06-02T02:31:58.259Z,6.70
2023-06-02T02:34:48.087Z,7.20
2023-06-02T02:37:45.928Z,7.22
2023-06-02T02:40:38.186Z,7.25
2023-06-02T02:43:25.985Z,7.60
2023-06-02T02:46:14.510Z,7.00
2023-06-02T02:49:03.631Z,7.15
2023-06-02T02:51:51.329Z,6.57
2023-06-02T02:54:39.304Z,7.32
2023-06-02T02:57:26.981Z,6.55
2023-06-02T03:00:15.845Z,7.28
2023-06-02T03:03:04.759Z,6.90
2023-06-02T03:05:55.977Z,6.55
2023-06-02T03:08:45.436Z,7.65
2023-06-02T03:11:33.980Z,6.82
2023-06-02T03:14:21.451Z,7.75
2023-06-02T03:17:10.168Z,8.15
2023-06-02T03:19:59.272Z,9.40
2023-06-02T03:22:48.864Z,9.75
2023-06-02T03:25:36.288Z,9.20
2023-06-02T03:28:25.168Z,9.23
2023-06-02T03:31:12.952Z,9.05
2023-06-02T03:34:00.950Z,10.43
2023-06-02T03:36:50.653Z,11.30
2023-06-02T03:39:40.178Z,9.30
2023-06-02T03:42:27.826Z,8.68
2023-06-02T03:45:15.721Z,9.38
2023-06-02T03:48:04.153Z,8.98
2023-06-02T03:50:51.895Z,8.20
2023-06-02T03:53:39.815Z,9.68
2023-06-02T03:56:29.672Z,9.35
2023-06-02T03:59:17.205Z,9.27
2023-06-02T04:02:07.156Z,8.90
2023-06-02T04:04:54.932Z,8.30
2023-06-02T04:07:42.720Z,9.35
2023-06-02T04:10:31.477Z,8.63
2023-06-02T04:13:20.701Z,7.95
2023-06-02T04:16:09.230Z,8.27
2023-06-02T04:18:57.593Z,10.23
2023-06-02T04:21:45.065Z,7.75
2023-06-02T04:24:34.497Z,9.18
2023-06-02T04:27:22.006Z,7.57
2023-06-02T04:30:11.970Z,7.20
2023-06-02T04:33:00.737Z,8.20
2023-06-02T04:35:48.539Z,7.00
2023-06-02T04:38:36.024Z,6.70
2023-06-02T04:41:24.170Z,7.63
2023-06-02T04:44:12.689Z,7.47
2023-06-02T04:47:02.351Z,6.80
2023-06-02T04:49:50.191Z,7.20
2023-06-02T04:52:39.957Z,7.38
2023-06-02T04:55:28.056Z,6.97
2023-06-02T04:58:15.662Z,6.32
2023-06-02T05:01:04.744Z,5.88
2023-06-02T05:03:54.640Z,5.35
2023-06-02T05:06:42.737Z,5.93
2023-06-02T05:09:31.680Z,6.30
2023-06-02T05:12:20.197Z,6.57
2023-06-02T05:15:09.270Z,8.35
2023-06-02T05:17:57.344Z,7.97
2023-06-02T05:20:47.982Z,7.80
2023-06-02T05:23:37.628Z,6.63
2023-06-02T05:26:25.124Z,5.20
2023-06-02T05:29:12.629Z,5.78
2023-06-02T05:32:00.196Z,4.95
2023-06-02T05:34:48.380Z,5.40
2023-06-02T05:37:37.724Z,4.97
2023-06-02T05:40:25.367Z,4.30
2023-06-02T05:43:13.005Z,3.50
2023-06-02T05:46:01.547Z,3.67
2023-06-02T05:48:49.869Z,3.70
2023-06-02T05:51:39.158Z,3.88
2023-06-02T05:54:27.965Z,3.83
2023-06-02T05:57:15.782Z,3.88
2023-06-02T06:00:05.864Z,3.22
2023-06-02T06:03:01.100Z,4.40
2023-06-02T06:05:52.094Z,4.20
2023-06-02T06:08:39.640Z,4.85
2023-06-02T06:11:29.207Z,4.57
2023-06-02T06:14:17.964Z,4.43
2023-06-02T06:17:05.927Z,4.20
2023-06-02T06:19:53.452Z,3.92
2023-06-02T06:22:41.871Z,4.75
2023-06-02T06:25:29.623Z,4.57
2023-06-02T06:28:19.000Z,4.00
2023-06-02T06:31:07.175Z,5.30
2023-06-02T06:33:55.276Z,5.65
2023-06-02T06:36:43.002Z,5.72
2023-06-02T06:39:31.190Z,4.47
2023-06-02T06:42:19.374Z,4.00
2023-06-02T06:45:19.872Z,4.68
2023-06-02T06:48:08.193Z,4.45
2023-06-02T06:50:56.122Z,4.70
2023-06-02T06:53:43.579Z,3.97
2023-06-02T06:56:31.019Z,4.53
2023-06-02T06:59:18.612Z,4.70
2023-06-02T07:02:08.552Z,4.07
2023-06-02T07:04:56.113Z,4.25
2023-06-02T07:07:43.648Z,3.78
2023-06-02T07:10:31.355Z,4.03
2023-06-02T07:13:19.889Z,4.15
2023-06-02T07:16:07.717Z,4.68
2023-06-02T07:18:56.653Z,3.83
2023-06-02T07:21:44.291Z,4.50
2023-06-02T07:24:31.731Z,4.60
2023-06-02T07:27:19.186Z,4.57
2023-06-02T07:30:08.086Z,4.75
2023-06-02T07:32:55.518Z,4.47
2023-06-02T07:35:44.607Z,4.63
2023-06-02T07:38:32.362Z,4.65
2023-06-02T07:41:20.373Z,3.92
2023-06-02T07:44:08.258Z,4.07
2023-06-02T07:46:56.175Z,3.88
2023-06-02T07:49:43.734Z,4.07
2023-06-02T07:52:33.028Z,4.13
2023-06-02T07:55:21.555Z,5.00
2023-06-02T07:58:10.668Z,3.80
2023-06-02T08:00:58.552Z,3.90
2023-06-02T08:03:46.412Z,3.55
2023-06-02T08:06:33.869Z,3.20
2023-06-02T08:09:23.310Z,3.20
2023-06-02T08:12:11.131Z,3.58
2023-06-02T08:14:59.472Z,3.20
2023-06-02T08:17:47.187Z,2.95
2023-06-02T08:20:34.788Z,3.75
2023-06-02T08:23:22.446Z,3.33
2023-06-02T08:26:11.628Z,3.30
2023-06-02T08:29:00.883Z,3.63
2023-06-02T08:31:49.083Z,3.38
2023-06-02T08:34:37.763Z,3.35
2023-06-02T08:37:25.939Z,3.38
2023-06-02T08:40:13.920Z,3.65
2023-06-02T08:43:04.340Z,3.70
2023-06-02T08:45:52.077Z,3.75
2023-06-02T08:48:41.172Z,4.40
2023-06-02T08:51:28.877Z,4.57
2023-06-02T08:54:17.012Z,5.32
2023-06-02T08:57:06.370Z,4.88
2023-06-02T08:59:55.265Z,4.82
2023-06-02T09:02:42.684Z,4.32
2023-06-02T09:05:30.710Z,4.10
2023-06-02T09:08:18.550Z,3.42
2023-06-02T09:11:17.985Z,3.05
2023-06-02T09:14:21.354Z,3.58
2023-06-02T09:17:29.176Z,2.45
2023-06-02T09:20:17.180Z,3.10
2023-06-02T09:23:05.057Z,3.50
2023-06-02T09:25:53.294Z,2.67
2023-06-02T09:28:40.880Z,3.05
2023-06-02T09:31:29.523Z,2.97
2023-06-02T09:34:19.605Z,2.92
2023-06-02T09:37:12.127Z,3.38
2023-06-02T09:40:07.090Z,3.33
2023-06-02T09:42:54.870Z,2.72
2023-06-02T09:46:05.649Z,2.95
2023-06-02T09:48:57.590Z,2.05
2023-06-02T09:51:46.995Z,2.50
2023-06-02T09:54:34.390Z,2.85
2023-06-02T09:57:22.303Z,2.78
2023-06-02T10:00:13.191Z,3.00
2023-06-02T10:03:01.460Z,3.70
2023-06-02T10:05:59.991Z,2.78
2023-06-02T10:09:03.648Z,3.03
2023-06-02T10:12:07.808Z,3.70
2023-06-02T10:15:18.563Z,3.88
2023-06-02T10:18:24.906Z,2.72
2023-06-02T10:21:18.778Z,3.40
2023-06-02T10:24:16.545Z,3.33
2023-06-02T10:27:19.012Z,3.50
2023-06-02T10:30:08.235Z,3.05
2023-06-02T10:32:56.825Z,3.70
2023-06-02T10:36:01.488Z,3.33
2023-06-02T10:38:49.370Z,3.28
2023-06-02T10:42:08.603Z,2.70
2023-06-02T10:45:30.840Z,3.30
2023-06-02T10:48:41.512Z,3.25
2023-06-02T10:52:07.988Z,3.50
2023-06-02T10:55:27.593Z,2.78
2023-06-02T10:58:16.591Z,3.03
2023-06-02T11:01:04.668Z,2.92
2023-06-02T11:03:53.072Z,2.97
2023-06-02T11:06:41.279Z,2.97
2023-06-02T11:09:36.503Z,3.25
2023-06-02T11:12:58.548Z,3.10
2023-06-02T11:16:16.659Z,3.05
2023-06-02T11:19:04.634Z,3.50
2023-06-02T11:22:04.979Z,3.63
2023-06-02T11:24:53.385Z,3.22
2023-06-02T11:27:43.465Z,2.83
2023-06-02T11:30:31.203Z,2.95
2023-06-02T11:33:21.362Z,3.70
2023-06-02T11:36:12.216Z,3.72
2023-06-02T11:39:07.808Z,3.22
2023-06-02T11:41:59.252Z,3.65
2023-06-02T11:44:50.913Z,3.80
2023-06-02T11:47:38.874Z,3.72
2023-06-02T11:50:27.840Z,4.30
2023-06-02T11:53:15.858Z,4.50
2023-06-02T11:56:04.042Z,4.32
2023-06-02T11:58:52.252Z,4.05
2023-06-02T12:01:39.764Z,3.63
2023-06-02T12:04:27.662Z,3.25
2023-06-02T12:07:17.208Z,3.28
2023-06-02T12:10:06.496Z,3.10
2023-06-02T12:12:53.926Z,3.55
2023-06-02T12:15:41.997Z,3.10
2023-06-02T12:18:30.860Z,9.55
2023-06-02T12:21:27.583Z,2.92
2023-06-02T12:24:32.036Z,2.88
2023-06-02T12:27:25.765Z,2.75
2023-06-02T12:30:15.681Z,2.90
2023-06-02T12:33:11.171Z,2.20
2023-06-02T12:35:58.993Z,2.22
2023-06-02T12:38:46.651Z,2.08
2023-06-02T12:41:35.719Z,1.88
2023-06-02T12:44:23.413Z,1.92
2023-06-02T12:47:11.092Z,1.60
2023-06-02T12:49:58.665Z,3.47
2023-06-02T12:52:46.816Z,2.20
2023-06-02T12:55:34.343Z,2.13
2023-06-02T12:58:23.296Z,1.77
2023-06-02T13:01:11.332Z,2.10
2023-06-02T13:03:59.641Z,2.08
2023-06-02T13:06:47.099Z,2.25
2023-06-02T13:09:34.492Z,2.00
2023-06-02T13:12:21.893Z,2.35
2023-06-02T13:15:12.005Z,2.67
2023-06-02T13:17:59.915Z,2.40
2023-06-02T13:20:48.030Z,2.28
2023-06-02T13:23:36.849Z,2.00
2023-06-02T13:26:24.410Z,1.73
2023-06-02T13:29:12.247Z,2.08
2023-06-02T13:32:01.521Z,2.05
2023-06-02T13:34:56.667Z,2.53
2023-06-02T13:37:44.138Z,3.25
2023-06-02T13:40:31.708Z,2.00
2023-06-02T13:43:19.393Z,2.20
2023-06-02T13:46:07.116Z,2.67
2023-06-02T13:48:56.246Z,2.08
2023-06-02T13:51:44.197Z,2.38
2023-06-02T13:54:31.716Z,1.67
2023-06-02T13:57:19.514Z,1.90
2023-06-02T14:00:08.490Z,1.95
2023-06-02T14:03:05.433Z,1.60
2023-06-02T14:05:54.462Z,1.90
2023-06-02T14:08:42.051Z,1.40
2023-06-02T14:11:29.539Z,1.88
2023-06-02T14:14:17.288Z,2.20
2023-06-02T14:17:05.558Z,1.80
2023-06-02T14:19:53.177Z,1.92
2023-06-02T14:22:43.347Z,2.00
2023-06-02T14:25:31.311Z,1.65
2023-06-02T14:28:19.467Z,2.10
2023-06-02T14:31:09.081Z,2.35
2023-06-02T14:33:57.349Z,1.90
2023-06-02T14:36:44.688Z,1.80
2023-06-02T14:39:33.670Z,2.20
2023-06-02T14:42:21.309Z,1.95
2023-06-02T14:45:09.841Z,2.17
2023-06-02T14:47:57.761Z,2.00
2023-06-02T14:50:45.738Z,2.15
2023-06-02T14:53:33.558Z,2.30
2023-06-02T14:56:23.659Z,1.83
2023-06-02T14:59:12.183Z,1.88
2023-06-02T15:01:59.774Z,1.85
2023-06-02T15:04:47.268Z,1.80
2023-06-02T15:07:37.429Z,1.80
2023-06-02T15:10:25.437Z,1.88
2023-06-02T15:13:14.259Z,1.50
2023-06-02T15:16:02.338Z,1.70
2023-06-02T15:18:54.158Z,1.70
2023-06-02T15:21:42.950Z,1.63
2023-06-02T15:24:30.450Z,2.08
2023-06-02T15:27:18.060Z,1.80
2023-06-02T15:30:08.168Z,1.90
2023-06-02T15:32:56.779Z,1.60
2023-06-02T15:35:44.488Z,2.42
2023-06-02T15:38:31.874Z,1.92
2023-06-02T15:41:19.407Z,1.40
2023-06-02T15:44:07.004Z,2.03
2023-06-02T15:46:56.056Z,1.48
2023-06-02T15:49:43.832Z,2.42
2023-06-02T15:52:31.311Z,1.30
2023-06-02T15:55:19.793Z,1.50
2023-06-02T15:58:08.342Z,1.83
2023-06-02T16:00:55.798Z,2.92
2023-06-02T16:03:44.696Z,1.67
2023-06-02T16:06:34.523Z,1.75
2023-06-02T16:09:22.573Z,1.42
2023-06-02T16:12:10.362Z,1.67
2023-06-02T16:14:58.137Z,1.42
2023-06-02T16:17:45.697Z,1.40
2023-06-02T16:20:34.608Z,1.52
2023-06-02T16:23:22.413Z,2.00
2023-06-02T16:26:11.102Z,2.05
2023-06-02T16:28:58.746Z,1.52
2023-06-02T16:31:46.716Z,1.50
2023-06-02T16:34:34.149Z,1.55
2023-06-02T16:37:23.018Z,1.40
2023-06-02T16:40:11.485Z,1.40
2023-06-02T16:42:59.002Z,1.77
2023-06-02T16:45:46.633Z,1.58
2023-06-02T16:48:34.392Z,2.03
2023-06-02T16:51:22.056Z,1.40
2023-06-02T16:54:12.883Z,1.45
2023-06-02T16:57:00.787Z,1.45
2023-06-02T16:59:48.463Z,1.75
2023-06-02T17:02:36.188Z,1.25
2023-06-02T17:05:24.745Z,1.95
2023-06-02T17:08:12.603Z,1.23
2023-06-02T17:11:01.632Z,1.27
2023-06-02T17:13:53.083Z,1.55
2023-06-02T17:16:40.907Z,2.05
2023-06-02T17:19:28.355Z,1.65
2023-06-02T17:22:15.682Z,1.52
2023-06-02T17:25:03.550Z,1.63
2023-06-02T17:27:52.319Z,1.50
2023-06-02T17:30:41.565Z,1.70
2023-06-02T17:33:29.138Z,1.77
2023-06-02T17:36:16.578Z,2.20
2023-06-02T17:39:04.470Z,1.77
2023-06-02T17:41:52.263Z,1.75
2023-06-02T17:44:43.469Z,2.22
2023-06-02T17:47:31.581Z,1.90
2023-06-02T17:50:19.360Z,1.88
2023-06-02T17:53:06.811Z,1.80
2023-06-02T17:55:54.364Z,2.03
2023-06-02T17:58:41.942Z,1.77
2023-06-02T18:01:31.754Z,1.80
2023-06-02T18:04:19.897Z,1.85
2023-06-02T18:07:07.948Z,2.17
2023-06-02T18:09:55.923Z,2.20
2023-06-02T18:12:43.515Z,1.90
2023-06-02T18:15:31.047Z,1.90
2023-06-02T18:18:20.135Z,2.13
2023-06-02T18:21:07.866Z,1.90
2023-06-02T18:23:58.855Z,1.80
2023-06-02T18:26:47.854Z,2.15
2023-06-02T18:29:37.211Z,1.73
2023-06-02T18:32:24.682Z,2.10
2023-06-02T18:35:13.934Z,1.85
2023-06-02T18:38:01.798Z,2.67
2023-06-02T18:40:49.506Z,1.75
2023-06-02T18:43:37.090Z,1.80
2023-06-02T18:46:24.578Z,2.22
2023-06-02T18:49:11.976Z,1.50
2023-06-02T18:52:03.213Z,1.20
2023-06-02T18:54:50.664Z,2.08
2023-06-02T18:57:38.178Z,1.38
2023-06-02T19:00:25.544Z,1.17
2023-06-02T19:03:13.154Z,1.58
2023-06-02T19:06:01.099Z,1.63
2023-06-02T19:08:50.108Z,1.25
2023-06-02T19:11:37.731Z,1.40
2023-06-02T19:14:26.730Z,1.20
2023-06-02T19:17:14.682Z,1.13
2023-06-02T19:20:06.367Z,1.15
2023-06-02T19:22:55.537Z,1.25
2023-06-02T19:25:44.395Z,1.10
2023-06-02T19:28:32.249Z,1.30
2023-06-02T19:31:20.973Z,2.13
2023-06-02T19:34:08.478Z,1.35
2023-06-02T19:36:56.009Z,1.13
2023-06-02T19:39:43.595Z,1.25
2023-06-02T19:42:32.608Z,1.38
2023-06-02T19:45:20.616Z,1.27
2023-06-02T19:48:08.499Z,1.40
2023-06-02T19:50:55.841Z,1.33
2023-06-02T19:53:43.269Z,1.33
2023-06-02T19:56:30.693Z,1.30
2023-06-02T19:59:21.036Z,1.20
2023-06-02T20:02:09.514Z,1.45
2023-06-02T20:04:57.006Z,1.25
2023-06-02T20:07:44.760Z,1.50
2023-06-02T20:10:32.542Z,1.30
2023-06-02T20:13:20.117Z,1.30
2023-06-02T20:16:08.968Z,1.80
2023-06-02T20:18:56.866Z,1.20
2023-06-02T20:21:44.385Z,1.48
2023-06-02T20:24:31.831Z,1.23
2023-06-02T20:27:19.198Z,1.10
2023-06-02T20:30:08.682Z,1.13
2023-06-02T20:32:59.161Z,1.00
2023-06-02T20:35:47.306Z,0.95
2023-06-02T20:38:34.890Z,1.30
2023-06-02T20:41:22.828Z,1.50
2023-06-02T20:44:10.333Z,1.60
2023-06-02T20:46:58.548Z,1.20
2023-06-02T20:49:47.674Z,1.58
2023-06-02T20:52:35.640Z,1.35
2023-06-02T20:55:24.918Z,1.02
2023-06-02T20:58:12.349Z,1.27
2023-06-02T21:00:59.826Z,1.30
2023-06-02T21:03:47.192Z,1.50
2023-06-02T21:06:36.040Z,0.95
2023-06-02T21:09:26.359Z,1.00
2023-06-02T21:12:13.901Z,1.23
2023-06-02T21:15:01.609Z,1.45
2023-06-02T21:17:49.304Z,1.27
2023-06-02T21:20:36.849Z,1.45
2023-06-02T21:23:25.848Z,0.93
2023-06-02T21:26:13.605Z,1.23
2023-06-02T21:29:01.051Z,1.27
2023-06-02T21:31:48.593Z,1.10
2023-06-02T21:34:36.128Z,1.13
2023-06-02T21:37:23.790Z,1.50
2023-06-02T21:40:13.420Z,1.20
2023-06-02T21:43:01.117Z,1.30
2023-06-02T21:45:49.025Z,1.27
2023-06-02T21:48:36.755Z,1.20
2023-06-02T21:51:25.392Z,1.42
2023-06-02T21:54:13.056Z,1.42
2023-06-02T21:57:01.923Z,1.50
2023-06-02T21:59:49.472Z,1.48
2023-06-02T22:02:37.994Z,1.30
2023-06-02T22:05:25.714Z,2.17
2023-06-02T22:08:13.718Z,1.20
2023-06-02T22:11:01.479Z,1.63
2023-06-02T22:13:50.270Z,1.10
2023-06-02T22:16:37.767Z,1.50
2023-06-02T22:19:25.256Z,1.20
2023-06-02T22:22:12.772Z,1.05
2023-06-02T22:25:00.474Z,1.38
2023-06-02T22:27:47.948Z,1.17
2023-06-02T22:30:36.840Z,0.85
2023-06-02T22:33:24.619Z,1.45
2023-06-02T22:36:12.127Z,1.02
2023-06-02T22:38:59.849Z,1.40
2023-06-02T22:41:47.445Z,1.30
2023-06-02T22:44:34.873Z,1.25
2023-06-02T22:47:23.799Z,1.00
2023-06-02T22:50:12.131Z,1.50
2023-06-02T22:53:00.007Z,1.17
2023-06-02T22:55:47.605Z,1.67
2023-06-02T22:58:35.465Z,1.73
2023-06-02T23:01:25.428Z,1.00
2023-06-02T23:04:14.477Z,1.13
2023-06-02T23:07:02.256Z,1.58
2023-06-02T23:09:51.116Z,1.42
2023-06-02T23:12:40.811Z,1.17
2023-06-02T23:15:28.516Z,1.55
2023-06-02T23:18:18.130Z,1.50
2023-06-02T23:21:07.318Z,1.48
2023-06-02T23:23:55.060Z,1.15
2023-06-02T23:26:42.641Z,1.88
2023-06-02T23:29:30.518Z,1.45
2023-06-02T23:32:17.884Z,1.40
2023-06-02T23:35:06.219Z,1.25
2023-06-02T23:37:55.117Z,1.25
2023-06-02T23:40:42.673Z,1.55
2023-06-02T23:43:30.121Z,1.23
2023-06-02T23:46:17.599Z,1.48
2023-06-02T23:49:05.541Z,1.40
2023-06-02T23:51:53.287Z,1.30
2023-06-02T23:54:42.352Z,1.38
2023-06-02T23:57:30.688Z,1.50
